sensor_id;sensor_type;location;lat;lon;timestamp;P1;durP1;ratioP1;P2;durP2;ratioP2
24713;SDS011;12820;51.580;5.010;2022-11-25T00:04:12;16.05;;;2.90;;
24713;SDS011;12820;51.580;5.010;2022-11-25T00:09:14;21.83;;;3.20;;
24713;SDS011;12820;51.580;5.010;2022-11-25T00:14:17;22.50;;;3.10;;
24713;SDS011;12820;51.580;5.010;2022-11-25T00:19:19;17.50;;;3.22;;
24713;SDS011;12820;51.580;5.010;2022-11-25T00:24:21;18.70;;;3.05;;
24713;SDS011;12820;51.580;5.010;2022-11-25T00:29:23;17.40;;;2.83;;
24713;SDS011;12820;51.580;5.010;2022-11-25T00:34:25;15.80;;;3.05;;
24713;SDS011;12820;51.580;5.010;2022-11-25T00:39:27;26.60;;;3.78;;
24713;SDS011;12820;51.580;5.010;2022-11-25T00:44:29;17.75;;;3.40;;
24713;SDS011;12820;51.580;5.010;2022-11-25T00:49:41;26.48;;;3.63;;
24713;SDS011;12820;51.580;5.010;2022-11-25T00:54:45;21.48;;;3.28;;
24713;SDS011;12820;51.580;5.010;2022-11-25T00:59:48;18.75;;;2.65;;
24713;SDS011;12820;51.580;5.010;2022-11-25T01:04:50;16.48;;;3.00;;
24713;SDS011;12820;51.580;5.010;2022-11-25T01:09:52;17.35;;;3.60;;
24713;SDS011;12820;51.580;5.010;2022-11-25T01:14:55;18.25;;;2.70;;
24713;SDS011;12820;51.580;5.010;2022-11-25T01:19:57;18.63;;;3.28;;
24713;SDS011;12820;51.580;5.010;2022-11-25T01:24:59;18.33;;;3.15;;
24713;SDS011;12820;51.580;5.010;2022-11-25T01:30:01;14.43;;;2.75;;
24713;SDS011;12820;51.580;5.010;2022-11-25T01:35:03;18.23;;;3.20;;
24713;SDS011;12820;51.580;5.010;2022-11-25T01:40:06;13.77;;;3.35;;
24713;SDS011;12820;51.580;5.010;2022-11-25T01:45:23;25.88;;;3.42;;
24713;SDS011;12820;51.580;5.010;2022-11-25T01:50:34;19.98;;;3.63;;
24713;SDS011;12820;51.580;5.010;2022-11-25T01:55:38;14.95;;;3.45;;
24713;SDS011;12820;51.580;5.010;2022-11-25T02:00:44;12.32;;;2.70;;
24713;SDS011;12820;51.580;5.010;2022-11-25T02:05:57;10.65;;;2.20;;
24713;SDS011;12820;51.580;5.010;2022-11-25T02:11:06;9.13;;;2.13;;
24713;SDS011;12820;51.580;5.010;2022-11-25T02:16:09;11.82;;;2.00;;
24713;SDS011;12820;51.580;5.010;2022-11-25T02:21:12;10.18;;;1.90;;
24713;SDS011;12820;51.580;5.010;2022-11-25T02:26:18;13.10;;;2.08;;
24713;SDS011;12820;51.580;5.010;2022-11-25T02:31:23;11.00;;;2.38;;
24713;SDS011;12820;51.580;5.010;2022-11-25T02:36:26;8.70;;;1.65;;
24713;SDS011;12820;51.580;5.010;2022-11-25T02:41:30;15.77;;;2.55;;
24713;SDS011;12820;51.580;5.010;2022-11-25T02:46:38;8.70;;;1.67;;
24713;SDS011;12820;51.580;5.010;2022-11-25T02:51:41;6.50;;;1.30;;
24713;SDS011;12820;51.580;5.010;2022-11-25T02:56:45;12.05;;;1.77;;
24713;SDS011;12820;51.580;5.010;2022-11-25T03:01:48;9.35;;;1.35;;
24713;SDS011;12820;51.580;5.010;2022-11-25T03:06:50;9.00;;;1.70;;
24713;SDS011;12820;51.580;5.010;2022-11-25T03:11:53;10.75;;;1.60;;
24713;SDS011;12820;51.580;5.010;2022-11-25T03:17:13;8.90;;;1.50;;
24713;SDS011;12820;51.580;5.010;2022-11-25T03:22:16;11.90;;;1.88;;
24713;SDS011;12820;51.580;5.010;2022-11-25T03:27:18;6.88;;;1.35;;
24713;SDS011;12820;51.580;5.010;2022-11-25T03:32:20;11.85;;;1.67;;
24713;SDS011;12820;51.580;5.010;2022-11-25T03:37:22;9.10;;;1.83;;
24713;SDS011;12820;51.580;5.010;2022-11-25T03:42:24;7.93;;;1.38;;
24713;SDS011;12820;51.580;5.010;2022-11-25T03:47:29;9.60;;;1.50;;
24713;SDS011;12820;51.580;5.010;2022-11-25T03:52:31;7.72;;;1.35;;
24713;SDS011;12820;51.580;5.010;2022-11-25T03:57:34;5.30;;;1.40;;
24713;SDS011;12820;51.580;5.010;2022-11-25T04:02:36;8.52;;;1.60;;
24713;SDS011;12820;51.580;5.010;2022-11-25T04:07:38;11.32;;;1.50;;
24713;SDS011;12820;51.580;5.010;2022-11-25T04:12:42;5.50;;;1.55;;
24713;SDS011;12820;51.580;5.010;2022-11-25T04:17:51;5.60;;;1.60;;
24713;SDS011;12820;51.580;5.010;2022-11-25T04:22:54;6.65;;;1.60;;
24713;SDS011;12820;51.580;5.010;2022-11-25T04:27:57;4.43;;;1.15;;
24713;SDS011;12820;51.580;5.010;2022-11-25T04:33:05;6.15;;;1.20;;
24713;SDS011;12820;51.580;5.010;2022-11-25T04:38:07;7.22;;;1.30;;
24713;SDS011;12820;51.580;5.010;2022-11-25T04:43:11;6.50;;;1.20;;
24713;SDS011;12820;51.580;5.010;2022-11-25T04:48:19;4.22;;;1.30;;
24713;SDS011;12820;51.580;5.010;2022-11-25T04:53:22;5.15;;;1.30;;
24713;SDS011;12820;51.580;5.010;2022-11-25T04:58:24;4.10;;;1.20;;
24713;SDS011;12820;51.580;5.010;2022-11-25T05:03:47;4.63;;;1.13;;
24713;SDS011;12820;51.580;5.010;2022-11-25T05:08:58;5.20;;;1.38;;
24713;SDS011;12820;51.580;5.010;2022-11-25T05:14:01;10.75;;;1.67;;
24713;SDS011;12820;51.580;5.010;2022-11-25T05:19:03;6.93;;;1.40;;
24713;SDS011;12820;51.580;5.010;2022-11-25T05:24:06;7.35;;;1.50;;
24713;SDS011;12820;51.580;5.010;2022-11-25T05:29:09;9.55;;;1.70;;
24713;SDS011;12820;51.580;5.010;2022-11-25T05:34:12;11.05;;;1.80;;
24713;SDS011;12820;51.580;5.010;2022-11-25T05:39:14;10.45;;;2.00;;
24713;SDS011;12820;51.580;5.010;2022-11-25T05:44:39;7.53;;;1.52;;
24713;SDS011;12820;51.580;5.010;2022-11-25T05:49:42;10.98;;;1.40;;
24713;SDS011;12820;51.580;5.010;2022-11-25T05:54:44;9.27;;;1.88;;
24713;SDS011;12820;51.580;5.010;2022-11-25T05:59:46;6.22;;;1.48;;
24713;SDS011;12820;51.580;5.010;2022-11-25T06:05:14;9.18;;;1.83;;
24713;SDS011;12820;51.580;5.010;2022-11-25T06:10:17;9.52;;;1.70;;
24713;SDS011;12820;51.580;5.010;2022-11-25T06:15:20;10.38;;;1.83;;
24713;SDS011;12820;51.580;5.010;2022-11-25T06:20:25;11.90;;;1.95;;
24713;SDS011;12820;51.580;5.010;2022-11-25T06:25:28;12.45;;;1.90;;
24713;SDS011;12820;51.580;5.010;2022-11-25T06:30:31;12.52;;;2.80;;
24713;SDS011;12820;51.580;5.010;2022-11-25T06:35:50;11.68;;;2.05;;
24713;SDS011;12820;51.580;5.010;2022-11-25T06:40:52;7.85;;;2.08;;
24713;SDS011;12820;51.580;5.010;2022-11-25T06:46:00;11.35;;;1.80;;
24713;SDS011;12820;51.580;5.010;2022-11-25T06:51:05;8.38;;;1.98;;
24713;SDS011;12820;51.580;5.010;2022-11-25T07:01:22;7.05;;;1.70;;
24713;SDS011;12820;51.580;5.010;2022-11-25T07:06:29;8.05;;;2.10;;
24713;SDS011;12820;51.580;5.010;2022-11-25T07:11:33;10.40;;;2.15;;
24713;SDS011;12820;51.580;5.010;2022-11-25T07:16:38;11.95;;;2.47;;
24713;SDS011;12820;51.580;5.010;2022-11-25T07:21:44;10.43;;;2.33;;
24713;SDS011;12820;51.580;5.010;2022-11-25T07:26:46;10.10;;;2.42;;
24713;SDS011;12820;51.580;5.010;2022-11-25T07:31:49;12.05;;;3.13;;
24713;SDS011;12820;51.580;5.010;2022-11-25T07:36:51;13.80;;;2.40;;
24713;SDS011;12820;51.580;5.010;2022-11-25T07:41:53;10.48;;;2.65;;
24713;SDS011;12820;51.580;5.010;2022-11-25T07:46:55;9.52;;;2.60;;
24713;SDS011;12820;51.580;5.010;2022-11-25T07:51:57;12.30;;;2.53;;
24713;SDS011;12820;51.580;5.010;2022-11-25T07:57:06;11.27;;;2.92;;
24713;SDS011;12820;51.580;5.010;2022-11-25T08:02:08;11.10;;;2.88;;
24713;SDS011;12820;51.580;5.010;2022-11-25T08:07:10;12.77;;;2.85;;
24713;SDS011;12820;51.580;5.010;2022-11-25T08:12:13;9.48;;;2.92;;
24713;SDS011;12820;51.580;5.010;2022-11-25T08:17:15;9.07;;;2.75;;
24713;SDS011;12820;51.580;5.010;2022-11-25T08:22:17;15.13;;;3.15;;
24713;SDS011;12820;51.580;5.010;2022-11-25T08:27:19;13.23;;;3.35;;
24713;SDS011;12820;51.580;5.010;2022-11-25T08:32:21;13.60;;;3.08;;
24713;SDS011;12820;51.580;5.010;2022-11-25T08:37:23;14.07;;;3.50;;
24713;SDS011;12820;51.580;5.010;2022-11-25T08:42:25;12.48;;;3.80;;
24713;SDS011;12820;51.580;5.010;2022-11-25T08:47:27;14.13;;;3.95;;
24713;SDS011;12820;51.580;5.010;2022-11-25T08:52:30;11.07;;;3.40;;
24713;SDS011;12820;51.580;5.010;2022-11-25T08:57:32;15.15;;;3.45;;
24713;SDS011;12820;51.580;5.010;2022-11-25T09:02:34;8.02;;;3.17;;
24713;SDS011;12820;51.580;5.010;2022-11-25T09:07:36;11.52;;;3.55;;
24713;SDS011;12820;51.580;5.010;2022-11-25T09:12:38;15.85;;;3.60;;
24713;SDS011;12820;51.580;5.010;2022-11-25T09:17:40;12.55;;;3.70;;
24713;SDS011;12820;51.580;5.010;2022-11-25T09:22:42;12.50;;;4.00;;
24713;SDS011;12820;51.580;5.010;2022-11-25T09:27:45;13.38;;;3.75;;
24713;SDS011;12820;51.580;5.010;2022-11-25T09:32:47;12.88;;;4.30;;
24713;SDS011;12820;51.580;5.010;2022-11-25T09:37:51;17.40;;;3.80;;
24713;SDS011;12820;51.580;5.010;2022-11-25T09:42:55;15.50;;;3.72;;
24713;SDS011;12820;51.580;5.010;2022-11-25T09:58:58;11.02;;;3.38;;
24713;SDS011;12820;51.580;5.010;2022-11-25T10:04:09;20.30;;;3.45;;
24713;SDS011;12820;51.580;5.010;2022-11-25T10:09:17;15.17;;;4.03;;
24713;SDS011;12820;51.580;5.010;2022-11-25T10:19:34;12.57;;;3.28;;
24713;SDS011;12820;51.580;5.010;2022-11-25T10:24:40;15.40;;;3.55;;
24713;SDS011;12820;51.580;5.010;2022-11-25T10:29:43;11.55;;;3.15;;
24713;SDS011;12820;51.580;5.010;2022-11-25T10:34:59;13.55;;;3.47;;
24713;SDS011;12820;51.580;5.010;2022-11-25T10:40:06;12.90;;;3.13;;
24713;SDS011;12820;51.580;5.010;2022-11-25T10:45:15;12.88;;;3.03;;
24713;SDS011;12820;51.580;5.010;2022-11-25T10:55:34;11.98;;;3.15;;
24713;SDS011;12820;51.580;5.010;2022-11-25T11:00:36;11.50;;;2.80;;
24713;SDS011;12820;51.580;5.010;2022-11-25T11:05:43;12.90;;;3.05;;
24713;SDS011;12820;51.580;5.010;2022-11-25T11:11:07;10.50;;;2.88;;
24713;SDS011;12820;51.580;5.010;2022-11-25T11:16:25;13.90;;;2.97;;
24713;SDS011;12820;51.580;5.010;2022-11-25T11:21:31;11.48;;;3.20;;
24713;SDS011;12820;51.580;5.010;2022-11-25T11:26:35;14.50;;;3.63;;
24713;SDS011;12820;51.580;5.010;2022-11-25T11:31:38;13.45;;;3.13;;
24713;SDS011;12820;51.580;5.010;2022-11-25T11:36:48;18.95;;;3.58;;
24713;SDS011;12820;51.580;5.010;2022-11-25T11:42:37;11.05;;;3.03;;
24713;SDS011;12820;51.580;5.010;2022-11-25T11:48:10;11.70;;;2.58;;
24713;SDS011;12820;51.580;5.010;2022-11-25T11:53:39;10.98;;;2.30;;
24713;SDS011;12820;51.580;5.010;2022-11-25T12:04:14;14.35;;;2.70;;
24713;SDS011;12820;51.580;5.010;2022-11-25T12:09:18;13.55;;;2.40;;
24713;SDS011;12820;51.580;5.010;2022-11-25T12:19:48;13.80;;;2.72;;
24713;SDS011;12820;51.580;5.010;2022-11-25T12:24:54;14.73;;;2.42;;
24713;SDS011;12820;51.580;5.010;2022-11-25T12:30:04;10.43;;;2.53;;
24713;SDS011;12820;51.580;5.010;2022-11-25T12:35:21;14.82;;;2.42;;
24713;SDS011;12820;51.580;5.010;2022-11-25T12:40:36;20.45;;;3.58;;
24713;SDS011;12820;51.580;5.010;2022-11-25T12:45:45;22.77;;;4.07;;
24713;SDS011;12820;51.580;5.010;2022-11-25T12:51:09;17.40;;;3.08;;
24713;SDS011;12820;51.580;5.010;2022-11-25T12:57:01;19.27;;;3.58;;
24713;SDS011;12820;51.580;5.010;2022-11-25T13:18:32;20.20;;;4.10;;
24713;SDS011;12820;51.580;5.010;2022-11-25T13:23:49;22.75;;;3.50;;
24713;SDS011;12820;51.580;5.010;2022-11-25T13:28:53;15.75;;;3.13;;
24713;SDS011;12820;51.580;5.010;2022-11-25T13:34:21;19.20;;;3.22;;
24713;SDS011;12820;51.580;5.010;2022-11-25T13:39:30;14.70;;;3.03;;
24713;SDS011;12820;51.580;5.010;2022-11-25T13:44:34;26.77;;;3.92;;
24713;SDS011;12820;51.580;5.010;2022-11-25T13:49:51;16.88;;;3.42;;
24713;SDS011;12820;51.580;5.010;2022-11-25T13:54:56;17.15;;;3.40;;
24713;SDS011;12820;51.580;5.010;2022-11-25T14:26:54;14.65;;;3.50;;
24713;SDS011;12820;51.580;5.010;2022-11-25T14:32:16;17.42;;;3.70;;
24713;SDS011;12820;51.580;5.010;2022-11-25T14:37:25;16.02;;;3.60;;
24713;SDS011;12820;51.580;5.010;2022-11-25T14:42:35;14.13;;;3.47;;
24713;SDS011;12820;51.580;5.010;2022-11-25T14:47:39;17.83;;;3.40;;
24713;SDS011;12820;51.580;5.010;2022-11-25T14:52:41;14.40;;;3.22;;
24713;SDS011;12820;51.580;5.010;2022-11-25T14:57:45;17.25;;;3.30;;
24713;SDS011;12820;51.580;5.010;2022-11-25T15:02:51;17.38;;;4.30;;
24713;SDS011;12820;51.580;5.010;2022-11-25T15:08:03;15.55;;;3.40;;
24713;SDS011;12820;51.580;5.010;2022-11-25T15:18:33;14.45;;;3.00;;
24713;SDS011;12820;51.580;5.010;2022-11-25T15:23:36;19.13;;;3.05;;
24713;SDS011;12820;51.580;5.010;2022-11-25T15:28:38;16.27;;;2.92;;
24713;SDS011;12820;51.580;5.010;2022-11-25T15:33:41;15.32;;;3.40;;
24713;SDS011;12820;51.580;5.010;2022-11-25T15:38:44;16.98;;;3.67;;
24713;SDS011;12820;51.580;5.010;2022-11-25T15:43:48;13.95;;;2.85;;
24713;SDS011;12820;51.580;5.010;2022-11-25T15:48:54;15.65;;;3.63;;
24713;SDS011;12820;51.580;5.010;2022-11-25T16:04:49;19.40;;;3.70;;
24713;SDS011;12820;51.580;5.010;2022-11-25T16:09:51;16.35;;;4.95;;
24713;SDS011;12820;51.580;5.010;2022-11-25T16:14:53;29.42;;;7.72;;
24713;SDS011;12820;51.580;5.010;2022-11-25T16:19:55;23.05;;;6.07;;
24713;SDS011;12820;51.580;5.010;2022-11-25T16:24:57;20.58;;;4.80;;
24713;SDS011;12820;51.580;5.010;2022-11-25T16:35:13;26.20;;;5.75;;
24713;SDS011;12820;51.580;5.010;2022-11-25T16:40:17;27.00;;;5.90;;
24713;SDS011;12820;51.580;5.010;2022-11-25T16:45:20;21.50;;;5.60;;
24713;SDS011;12820;51.580;5.010;2022-11-25T16:50:24;24.45;;;6.47;;
24713;SDS011;12820;51.580;5.010;2022-11-25T16:55:26;22.73;;;7.28;;
24713;SDS011;12820;51.580;5.010;2022-11-25T17:00:29;20.98;;;6.78;;
24713;SDS011;12820;51.580;5.010;2022-11-25T17:05:32;29.75;;;8.70;;
24713;SDS011;12820;51.580;5.010;2022-11-25T17:10:34;23.67;;;7.22;;
24713;SDS011;12820;51.580;5.010;2022-11-25T17:15:36;23.90;;;7.15;;
24713;SDS011;12820;51.580;5.010;2022-11-25T17:20:39;23.52;;;6.55;;
24713;SDS011;12820;51.580;5.010;2022-11-25T17:25:41;21.98;;;6.70;;
24713;SDS011;12820;51.580;5.010;2022-11-25T17:30:46;29.63;;;10.68;;
24713;SDS011;12820;51.580;5.010;2022-11-25T17:35:49;36.33;;;9.30;;
24713;SDS011;12820;51.580;5.010;2022-11-25T17:40:51;20.00;;;6.72;;
24713;SDS011;12820;51.580;5.010;2022-11-25T17:45:53;27.77;;;6.65;;
24713;SDS011;12820;51.580;5.010;2022-11-25T17:50:55;28.10;;;5.18;;
24713;SDS011;12820;51.580;5.010;2022-11-25T17:55:57;20.13;;;4.95;;
24713;SDS011;12820;51.580;5.010;2022-11-25T18:01:00;17.77;;;4.85;;
24713;SDS011;12820;51.580;5.010;2022-11-25T18:06:02;23.50;;;5.38;;
24713;SDS011;12820;51.580;5.010;2022-11-25T18:11:05;26.25;;;4.85;;
24713;SDS011;12820;51.580;5.010;2022-11-25T18:16:08;23.85;;;5.75;;
24713;SDS011;12820;51.580;5.010;2022-11-25T18:21:11;25.80;;;5.60;;
24713;SDS011;12820;51.580;5.010;2022-11-25T18:26:13;29.85;;;5.70;;
24713;SDS011;12820;51.580;5.010;2022-11-25T18:31:16;26.33;;;7.63;;
24713;SDS011;12820;51.580;5.010;2022-11-25T18:36:18;42.13;;;13.98;;
24713;SDS011;12820;51.580;5.010;2022-11-25T18:41:20;40.88;;;14.00;;
24713;SDS011;12820;51.580;5.010;2022-11-25T18:46:24;32.42;;;8.18;;
24713;SDS011;12820;51.580;5.010;2022-11-25T18:51:26;25.17;;;9.57;;
24713;SDS011;12820;51.580;5.010;2022-11-25T18:56:28;30.92;;;8.82;;
24713;SDS011;12820;51.580;5.010;2022-11-25T19:01:30;36.72;;;10.93;;
24713;SDS011;12820;51.580;5.010;2022-11-25T19:06:32;29.45;;;9.20;;
24713;SDS011;12820;51.580;5.010;2022-11-25T19:11:35;30.55;;;8.90;;
24713;SDS011;12820;51.580;5.010;2022-11-25T19:16:41;32.83;;;8.30;;
24713;SDS011;12820;51.580;5.010;2022-11-25T19:21:45;23.05;;;8.68;;
24713;SDS011;12820;51.580;5.010;2022-11-25T19:26:47;23.92;;;8.02;;
24713;SDS011;12820;51.580;5.010;2022-11-25T19:31:52;25.83;;;9.20;;
24713;SDS011;12820;51.580;5.010;2022-11-25T19:36:55;36.90;;;9.07;;
24713;SDS011;12820;51.580;5.010;2022-11-25T19:41:58;25.48;;;7.55;;
24713;SDS011;12820;51.580;5.010;2022-11-25T19:47:00;23.85;;;9.13;;
24713;SDS011;12820;51.580;5.010;2022-11-25T19:52:20;30.50;;;10.35;;
24713;SDS011;12820;51.580;5.010;2022-11-25T19:57:24;34.60;;;10.93;;
24713;SDS011;12820;51.580;5.010;2022-11-25T20:02:27;28.35;;;8.40;;
24713;SDS011;12820;51.580;5.010;2022-11-25T20:07:29;27.58;;;8.45;;
24713;SDS011;12820;51.580;5.010;2022-11-25T20:12:32;40.80;;;12.07;;
24713;SDS011;12820;51.580;5.010;2022-11-25T20:17:35;33.08;;;12.43;;
24713;SDS011;12820;51.580;5.010;2022-11-25T20:22:39;40.75;;;13.13;;
24713;SDS011;12820;51.580;5.010;2022-11-25T20:28:02;42.40;;;15.43;;
24713;SDS011;12820;51.580;5.010;2022-11-25T20:33:04;39.30;;;13.27;;
24713;SDS011;12820;51.580;5.010;2022-11-25T20:38:17;40.28;;;10.75;;
24713;SDS011;12820;51.580;5.010;2022-11-25T20:48:24;32.63;;;8.70;;
24713;SDS011;12820;51.580;5.010;2022-11-25T20:53:27;23.00;;;7.88;;
24713;SDS011;12820;51.580;5.010;2022-11-25T20:58:32;20.05;;;7.90;;
24713;SDS011;12820;51.580;5.010;2022-11-25T21:03:35;27.73;;;11.30;;
24713;SDS011;12820;51.580;5.010;2022-11-25T21:08:37;33.55;;;10.35;;
24713;SDS011;12820;51.580;5.010;2022-11-25T21:13:39;24.38;;;9.63;;
24713;SDS011;12820;51.580;5.010;2022-11-25T21:18:41;31.05;;;9.63;;
24713;SDS011;12820;51.580;5.010;2022-11-25T21:23:44;24.70;;;9.77;;
24713;SDS011;12820;51.580;5.010;2022-11-25T21:28:49;31.23;;;10.07;;
24713;SDS011;12820;51.580;5.010;2022-11-25T21:33:55;29.27;;;10.35;;
24713;SDS011;12820;51.580;5.010;2022-11-25T21:39:01;28.50;;;9.88;;
24713;SDS011;12820;51.580;5.010;2022-11-25T21:44:09;30.55;;;9.15;;
24713;SDS011;12820;51.580;5.010;2022-11-25T21:49:15;23.40;;;9.05;;
24713;SDS011;12820;51.580;5.010;2022-11-25T21:54:17;34.53;;;13.52;;
24713;SDS011;12820;51.580;5.010;2022-11-25T21:59:19;38.03;;;13.73;;
24713;SDS011;12820;51.580;5.010;2022-11-25T22:04:22;41.03;;;13.57;;
24713;SDS011;12820;51.580;5.010;2022-11-25T22:09:25;31.95;;;12.70;;
24713;SDS011;12820;51.580;5.010;2022-11-25T22:14:28;30.13;;;12.50;;
24713;SDS011;12820;51.580;5.010;2022-11-25T22:24:40;27.48;;;10.00;;
24713;SDS011;12820;51.580;5.010;2022-11-25T22:29:43;20.75;;;9.45;;
24713;SDS011;12820;51.580;5.010;2022-11-25T22:34:45;26.00;;;9.68;;
24713;SDS011;12820;51.580;5.010;2022-11-25T22:39:47;26.65;;;9.88;;
24713;SDS011;12820;51.580;5.010;2022-11-25T22:44:50;32.05;;;10.77;;
24713;SDS011;12820;51.580;5.010;2022-11-25T22:49:53;29.13;;;11.02;;
24713;SDS011;12820;51.580;5.010;2022-11-25T22:55:01;31.20;;;12.15;;
24713;SDS011;12820;51.580;5.010;2022-11-25T23:00:26;30.25;;;11.02;;
24713;SDS011;12820;51.580;5.010;2022-11-25T23:05:34;32.58;;;11.48;;
24713;SDS011;12820;51.580;5.010;2022-11-25T23:10:37;33.60;;;12.88;;
24713;SDS011;12820;51.580;5.010;2022-11-25T23:15:41;32.40;;;11.23;;
24713;SDS011;12820;51.580;5.010;2022-11-25T23:20:47;31.75;;;10.88;;
24713;SDS011;12820;51.580;5.010;2022-11-25T23:25:50;27.55;;;11.05;;
24713;SDS011;12820;51.580;5.010;2022-11-25T23:30:56;28.83;;;11.20;;
24713;SDS011;12820;51.580;5.010;2022-11-25T23:36:01;31.98;;;10.95;;
24713;SDS011;12820;51.580;5.010;2022-11-25T23:41:13;31.88;;;11.63;;
24713;SDS011;12820;51.580;5.010;2022-11-25T23:46:17;28.27;;;10.55;;
24713;SDS011;12820;51.580;5.010;2022-11-25T23:51:23;26.63;;;10.45;;
24713;SDS011;12820;51.580;5.010;2022-11-25T23:56:27;27.60;;;11.57;;
